Time;durP1;ratioP1;P1;durP2;ratioP2;P2;SDS_P1;SDS_P2;PMS_P1;PMS_P2;Temp;Humidity;BMP_temperature;BMP_pressure;BME280_temperature;BME280_humidity;BME280_pressure;Samples;Min_cycle;Max_cycle;Signal;HPM_P1;HPM_P2
2022/04/02 00:00:28;;;;;;;2.35;1.10;;;13.10;99.90;;;;;;4957380;29;20035;-82
2022/04/02 00:02:56;;;;;;;3.28;1.30;;;13.00;99.90;;;;;;4957045;29;20503;-82
2022/04/02 00:05:25;;;;;;;7.53;0.90;;;13.00;99.90;;;;;;4956838;28;20122;-83
2022/04/02 00:07:52;;;;;;;1.35;0.60;;;13.10;99.90;;;;;;4941178;29;20143;-82
2022/04/02 00:10:19;;;;;;;4.68;1.27;;;13.00;99.90;;;;;;4941078;29;20027;-82
2022/04/02 00:12:47;;;;;;;4.03;0.90;;;13.00;99.90;;;;;;4956904;29;20039;-83
2022/04/02 00:15:13;;;;;;;3.53;1.15;;;13.00;99.90;;;;;;4940806;29;20050;-82
2022/04/02 00:17:41;;;;;;;6.68;1.15;;;13.00;99.90;;;;;;4956751;29;20452;-82
2022/04/02 00:20:08;;;;;;;2.33;0.73;;;13.10;99.90;;;;;;4957017;29;20381;-83
2022/04/02 00:22:36;;;;;;;7.32;1.20;;;13.00;99.90;;;;;;4956614;29;20034;-82
2022/04/02 00:25:04;;;;;;;18.38;2.35;;;13.00;99.90;;;;;;4956674;29;20106;-82
2022/04/02 00:27:31;;;;;;;6.53;1.25;;;13.00;99.90;;;;;;4972676;28;20027;-82
2022/04/02 00:29:58;;;;;;;8.75;2.17;;;13.00;99.90;;;;;;4940684;29;20031;-83
2022/04/02 00:32:25;;;;;;;7.13;1.50;;;13.00;99.90;;;;;;4972512;28;20138;-83
2022/04/02 00:34:52;;;;;;;3.38;1.15;;;12.90;99.90;;;;;;4940777;29;20507;-82
2022/04/02 00:37:19;;;;;;;8.98;1.42;;;13.00;99.90;;;;;;4972585;28;20055;-82
2022/04/02 00:39:46;;;;;;;3.70;1.65;;;13.00;99.90;;;;;;4941008;29;20447;-82
2022/04/02 00:42:12;;;;;;;3.88;1.80;;;12.90;99.90;;;;;;4956481;28;20536;-82
2022/04/02 00:44:40;;;;;;;5.85;1.10;;;12.90;99.90;;;;;;4972375;28;20037;-82
2022/04/02 00:47:07;;;;;;;3.20;1.20;;;12.90;99.90;;;;;;4956273;29;20031;-82
2022/04/02 00:49:34;;;;;;;3.88;1.08;;;12.90;99.90;;;;;;4956222;29;20027;-82
2022/04/02 00:52:01;;;;;;;4.13;1.85;;;12.90;99.90;;;;;;4955937;28;20031;-83
2022/04/02 00:54:28;;;;;;;2.90;1.67;;;12.80;99.90;;;;;;4972533;28;20019;-82
2022/04/02 00:56:56;;;;;;;4.65;1.42;;;12.80;99.90;;;;;;4972288;28;20109;-82
2022/04/02 00:59:22;;;;;;;6.03;1.27;;;12.70;99.90;;;;;;4956054;29;20027;-83
2022/04/02 01:01:49;;;;;;;3.20;1.40;;;12.70;99.90;;;;;;4956409;29;20086;-82
2022/04/02 01:04:16;;;;;;;8.00;2.58;;;12.80;99.90;;;;;;4940438;29;20079;-82
2022/04/02 01:06:46;;;;;;;9.88;2.47;;;12.70;99.90;;;;;;4956050;29;20130;-82
2022/04/02 01:09:20;;;;;;;7.63;1.98;;;12.70;99.90;;;;;;4972021;28;20054;-83
2022/04/02 01:11:54;;;;;;;4.18;1.58;;;12.80;99.90;;;;;;4956764;28;20118;-83
2022/04/02 01:14:23;;;;;;;8.35;2.17;;;12.70;99.90;;;;;;4955918;29;20028;-83
2022/04/02 01:16:54;;;;;;;11.23;2.78;;;12.70;99.90;;;;;;4955863;29;20031;-83
2022/04/02 01:19:24;;;;;;;10.50;3.35;;;12.70;99.90;;;;;;4955701;29;20035;-83
2022/04/02 01:22:03;;;;;;;18.80;4.70;;;12.70;99.90;;;;;;4955946;29;20031;-83
2022/04/02 01:24:44;;;;;;;11.10;3.83;;;12.70;99.90;;;;;;4971594;28;20102;-83
2022/04/02 01:27:12;;;;;;;11.02;3.90;;;12.60;99.90;;;;;;4955520;29;20035;-83
2022/04/02 01:29:41;;;;;;;10.35;3.35;;;12.60;99.90;;;;;;4956357;29;20050;-83
2022/04/02 01:32:11;;;;;;;8.70;2.42;;;12.60;99.90;;;;;;4971750;28;20408;-83
2022/04/02 01:34:40;;;;;;;4.85;1.60;;;12.60;99.90;;;;;;4955789;28;20424;-82
2022/04/02 01:37:15;;;;;;;7.07;1.77;;;12.50;99.90;;;;;;4940408;29;20023;-83
2022/04/02 01:39:50;;;;;;;15.55;1.77;;;12.50;99.90;;;;;;4956575;29;20042;-83
2022/04/02 01:42:24;;;;;;;7.18;2.30;;;12.50;99.90;;;;;;4956732;29;20031;-83
2022/04/02 01:45:05;;;;;;;;;;;12.50;99.90;;;;;;4941706;29;20392;-83
2022/04/02 01:47:42;;;;;;;10.00;2.08;;;12.50;99.90;;;;;;4970057;28;20303;-83
2022/04/02 01:50:13;;;;;;;11.70;1.45;;;12.50;99.90;;;;;;4955214;29;20031;-83
2022/04/02 01:52:45;;;;;;;8.63;2.25;;;12.50;99.90;;;;;;4939908;29;20049;-83
2022/04/02 01:55:16;;;;;;;28.98;2.55;;;12.50;99.90;;;;;;4956588;29;20350;-83
2022/04/02 01:57:49;;;;;;;8.40;2.10;;;12.50;99.90;;;;;;4939833;29;20446;-83
2022/04/02 02:00:21;;;;;;;1.90;1.00;;;12.50;99.90;;;;;;4954946;28;20027;-83
2022/04/02 02:02:50;;;;;;;17.90;2.90;;;12.50;99.90;;;;;;4954104;28;20428;-83
2022/04/02 02:05:17;;;;;;;6.30;1.48;;;12.40;99.90;;;;;;4939019;29;20057;-83
2022/04/02 02:07:52;;;;;;;5.20;1.73;;;12.50;99.90;;;;;;4971009;28;20039;-82
2022/04/02 02:10:32;;;;;;;28.52;4.57;;;12.40;99.90;;;;;;4954904;29;20035;-83
2022/04/02 02:13:17;;;;;;;5.60;1.85;;;12.50;99.90;;;;;;4969015;28;20495;-83
2022/04/02 02:15:47;;;;;;;11.68;2.58;;;12.40;99.90;;;;;;4955090;28;20074;-83
2022/04/02 02:18:16;;;;;;;14.85;2.10;;;12.40;99.90;;;;;;4954592;29;20055;-82
2022/04/02 02:20:43;;;;;;;8.52;2.22;;;12.40;99.90;;;;;;4954894;29;20120;-83
2022/04/02 02:23:11;;;;;;;9.68;2.78;;;12.40;99.90;;;;;;4954778;28;20035;-82
2022/04/02 02:25:37;;;;;;;10.60;1.67;;;12.40;99.90;;;;;;4954793;29;20039;-82
2022/04/02 02:28:04;;;;;;;4.25;1.65;;;12.40;99.90;;;;;;4970758;28;20114;-83
2022/04/02 02:30:32;;;;;;;12.88;2.72;;;12.30;99.90;;;;;;4954890;28;20047;-83
2022/04/02 02:35:51;;;;;;;14.10;2.25;;;12.40;99.90;;;;;;4970735;28;20053;-83
2022/04/02 02:38:23;;;;;;;8.85;2.47;;;12.40;99.90;;;;;;4954435;29;20019;-83
2022/04/02 02:41:07;;;;;;;7.82;2.47;;;12.40;99.90;;;;;;4954588;29;20027;-83
2022/04/02 02:43:39;;;;;;;4.53;1.85;;;12.40;99.90;;;;;;4954542;28;20035;-82
2022/04/02 02:46:17;;;;;;;11.68;2.00;;;12.40;99.90;;;;;;4954270;29;20130;-82
2022/04/02 02:48:47;;;;;;;9.98;2.40;;;12.40;99.90;;;;;;4938822;29;20027;-82
2022/04/02 02:51:18;;;;;;;14.95;3.22;;;12.40;99.90;;;;;;4954749;29;20050;-82
2022/04/02 02:53:45;;;;;;;5.68;1.73;;;12.40;99.90;;;;;;4956136;29;20028;-83
2022/04/02 02:56:14;;;;;;;4.65;1.67;;;12.40;99.90;;;;;;4954361;29;20126;-83
2022/04/02 02:58:41;;;;;;;7.15;3.45;;;12.40;99.90;;;;;;4970480;28;20062;-83
2022/04/02 03:01:09;;;;;;;13.45;2.33;;;12.30;99.90;;;;;;4954755;29;20429;-83
2022/04/02 03:03:38;;;;;;;9.75;2.95;;;12.30;99.90;;;;;;4938639;29;20050;-83
2022/04/02 03:06:09;;;;;;;9.40;2.65;;;12.30;99.90;;;;;;4954280;29;20043;-82
2022/04/02 03:08:42;;;;;;;7.97;1.98;;;12.30;99.90;;;;;;4955604;28;20034;-82
2022/04/02 03:11:08;;;;;;;25.50;3.88;;;12.30;99.90;;;;;;4955288;29;20035;-83
2022/04/02 03:13:40;;;;;;;11.65;2.83;;;12.20;99.90;;;;;;4971013;28;20361;-82
2022/04/02 03:16:09;;;;;;;14.75;3.05;;;12.30;99.90;;;;;;4957938;29;20482;-83
2022/04/02 03:18:55;;;;;;;13.25;3.53;;;12.30;99.90;;;;;;4958598;29;20507;-85
2022/04/02 03:21:24;;;;;;;16.15;3.05;;;12.30;99.90;;;;;;4958331;29;20064;-85
2022/04/02 03:23:52;;;;;;;6.28;2.40;;;12.30;99.90;;;;;;4942476;29;20034;-85
2022/04/02 03:26:21;;;;;;;16.85;2.10;;;12.30;99.90;;;;;;4958211;29;20050;-85
2022/04/02 03:28:50;;;;;;;28.23;3.60;;;12.40;99.90;;;;;;4958675;29;20036;-84
2022/04/02 03:31:21;;;;;;;10.75;3.08;;;12.40;99.90;;;;;;4958083;29;20123;-84
2022/04/02 03:33:50;;;;;;;18.98;3.00;;;12.40;99.90;;;;;;4958515;29;20052;-84
2022/04/02 03:36:18;;;;;;;11.30;2.33;;;12.40;99.90;;;;;;4942883;29;20496;-86
2022/04/02 03:38:46;;;;;;;11.23;2.40;;;12.40;99.90;;;;;;4974789;28;20042;-87
2022/04/02 03:41:15;;;;;;;14.95;3.60;;;12.40;99.90;;;;;;4942580;29;20031;-85
2022/04/02 03:43:46;;;;;;;16.92;2.42;;;12.40;99.90;;;;;;4942476;29;20027;-84
2022/04/02 03:49:03;;;;;;;10.85;3.08;;;12.40;99.90;;;;;;4973967;28;20031;-84
2022/04/02 03:51:30;;;;;;;9.82;3.38;;;12.50;99.90;;;;;;4937988;29;20039;-84
2022/04/02 03:53:59;;;;;;;14.73;3.40;;;12.50;99.90;;;;;;4922467;29;20095;-84
2022/04/02 03:56:27;;;;;;;12.07;2.60;;;12.50;99.90;;;;;;4922399;29;20506;-87
2022/04/02 03:58:57;;;;;;;16.00;2.60;;;12.50;99.90;;;;;;4922207;29;20526;-85
2022/04/02 04:01:25;;;;;;;15.48;2.92;;;12.50;99.90;;;;;;4922004;29;20058;-86
2022/04/02 04:03:52;;;;;;;13.10;2.95;;;12.50;99.90;;;;;;4921773;29;20102;-84
2022/04/02 04:06:19;;;;;;;9.95;3.30;;;12.40;99.90;;;;;;4921597;29;20048;-83
2022/04/02 04:08:48;;;;;;;13.40;3.08;;;12.40;99.90;;;;;;4921446;29;20564;-83
2022/04/02 04:11:16;;;;;;;4.45;2.42;;;12.30;99.90;;;;;;4905647;29;20044;-82
2022/04/02 04:13:46;;;;;;;6.57;1.52;;;12.30;99.90;;;;;;4921419;29;20028;-83
2022/04/02 04:16:13;;;;;;;5.53;1.67;;;12.30;99.90;;;;;;4921350;28;20031;-82
2022/04/02 04:18:40;;;;;;;10.80;1.00;;;12.20;99.90;;;;;;4921376;29;20075;-84
2022/04/02 04:21:08;;;;;;;5.78;0.70;;;12.20;99.90;;;;;;4921426;29;20039;-83
2022/04/02 04:23:35;;;;;;;7.93;1.58;;;12.10;99.90;;;;;;4940518;29;20050;-83
2022/04/02 04:26:04;;;;;;;1.10;0.45;;;12.10;99.90;;;;;;4940665;29;20035;-83
2022/04/02 04:28:38;;;;;;;1.20;0.65;;;12.10;99.90;;;;;;4957048;29;20122;-86
2022/04/02 04:31:06;;;;;;;12.90;1.08;;;12.10;99.90;;;;;;4941309;29;20027;-87
2022/04/02 04:33:34;;;;;;;4.10;1.42;;;12.10;99.90;;;;;;4957821;29;20027;-87
2022/04/02 04:36:02;;;;;;;9.90;1.27;;;12.10;99.90;;;;;;4956916;28;20075;-87
2022/04/02 04:38:30;;;;;;;7.47;0.68;;;12.20;99.90;;;;;;4941228;29;20036;-87
2022/04/02 04:41:02;;;;;;;7.97;0.98;;;12.10;99.90;;;;;;4941834;29;20440;-87
2022/04/02 04:43:30;;;;;;;1.23;0.85;;;12.10;99.90;;;;;;4941050;29;20035;-87
2022/04/02 04:45:57;;;;;;;0.47;0.38;;;12.10;99.90;;;;;;4957025;28;20039;-86
2022/04/02 04:48:24;;;;;;;1.40;0.60;;;12.10;99.90;;;;;;4957050;29;20035;-85
2022/04/02 04:50:55;;;;;;;10.00;1.90;;;12.10;99.90;;;;;;4941416;29;20023;-85
2022/04/02 04:53:23;;;;;;;3.10;0.95;;;12.10;99.90;;;;;;4956706;29;20401;-85
2022/04/02 04:55:51;;;;;;;12.52;1.48;;;12.10;99.90;;;;;;4956734;29;20031;-85
2022/04/02 04:58:21;;;;;;;2.83;0.60;;;12.10;99.90;;;;;;4941267;29;20027;-85
2022/04/02 05:00:53;;;;;;;5.00;0.85;;;12.10;99.90;;;;;;4956569;29;20118;-85
2022/04/02 05:03:24;;;;;;;1.30;0.60;;;12.10;99.90;;;;;;4972669;28;20031;-85
2022/04/02 05:05:56;;;;;;;5.47;1.17;;;12.10;99.90;;;;;;4972717;28;20059;-87
2022/04/02 05:08:25;;;;;;;2.22;0.57;;;12.10;99.90;;;;;;4956825;29;20039;-86
2022/04/02 05:10:58;;;;;;;8.90;0.73;;;12.10;99.90;;;;;;4958513;29;20031;-86
2022/04/02 05:13:32;;;;;;;8.65;2.08;;;12.00;99.90;;;;;;4957404;28;20636;-85
2022/04/02 05:15:59;;;;;;;2.58;1.00;;;12.10;99.90;;;;;;4972593;28;20031;-85
2022/04/02 05:18:27;;;;;;;3.13;0.57;;;12.10;99.90;;;;;;4956340;29;20038;-85
2022/04/02 05:20:55;;;;;;;12.45;0.85;;;12.00;99.90;;;;;;4956317;28;20090;-86
2022/04/02 05:23:23;;;;;;;9.10;1.00;;;12.10;99.90;;;;;;4956505;29;20027;-85
2022/04/02 05:25:53;;;;;;;7.22;1.52;;;12.00;99.90;;;;;;4956724;28;20130;-86
2022/04/02 05:28:22;;;;;;;5.07;0.93;;;12.00;99.90;;;;;;4956093;29;20493;-86
2022/04/02 05:30:49;;;;;;;4.78;0.63;;;12.10;99.90;;;;;;4956216;29;20031;-85
2022/04/02 05:33:16;;;;;;;10.98;2.30;;;12.20;99.90;;;;;;4955898;29;20109;-84
2022/04/02 05:35:42;;;;;;;5.85;1.23;;;12.30;99.90;;;;;;4940083;29;20110;-85
2022/04/02 05:38:09;;;;;;;5.38;0.60;;;12.40;99.90;;;;;;4955857;28;20457;-85
2022/04/02 05:40:38;;;;;;;2.88;0.50;;;12.50;99.90;;;;;;4940086;29;20081;-85
2022/04/02 05:43:06;;;;;;;6.75;1.00;;;12.50;99.90;;;;;;4956036;29;20067;-85
2022/04/02 05:45:35;;;;;;;1.95;0.40;;;12.50;99.90;;;;;;4955848;29;20059;-85
2022/04/02 05:48:02;;;;;;;2.58;0.77;;;12.60;99.90;;;;;;4955882;29;20035;-85
2022/04/02 05:50:28;;;;;;;2.53;1.02;;;12.70;99.90;;;;;;4955845;29;20028;-86
2022/04/02 05:52:55;;;;;;;2.55;0.52;;;12.70;99.90;;;;;;4939675;29;20028;-85
2022/04/02 05:55:21;;;;;;;8.27;0.68;;;12.90;99.90;;;;;;4955537;29;20114;-85
2022/04/02 05:57:48;;;;;;;3.53;0.77;;;13.00;99.90;;;;;;4955507;29;20031;-85
2022/04/02 06:00:18;;;;;;;2.78;0.93;;;13.00;99.90;;;;;;4955739;29;20150;-86
2022/04/02 06:02:45;;;;;;;6.28;2.05;;;13.10;99.90;;;;;;4939526;29;20038;-86
2022/04/02 06:05:15;;;;;;;3.47;0.90;;;13.10;99.90;;;;;;4955423;29;20042;-85
2022/04/02 06:07:42;;;;;;;7.53;0.75;;;13.10;99.90;;;;;;4939684;29;20033;-86
2022/04/02 06:10:10;;;;;;;2.22;1.20;;;13.20;99.90;;;;;;4955314;28;20027;-86
2022/04/02 06:12:37;;;;;;;4.85;0.60;;;13.30;99.90;;;;;;4939495;29;20027;-86
2022/04/02 06:15:07;;;;;;;6.53;1.50;;;13.50;99.90;;;;;;4955268;29;20136;-85
2022/04/02 06:17:34;;;;;;;5.57;0.70;;;13.50;99.90;;;;;;4955372;29;20027;-86
2022/04/02 06:20:00;;;;;;;2.88;0.98;;;13.60;99.90;;;;;;4939414;29;20035;-85
2022/04/02 06:22:27;;;;;;;2.13;0.40;;;13.80;99.90;;;;;;4955221;29;20031;-86
2022/04/02 06:24:53;;;;;;;4.97;1.02;;;13.90;99.90;;;;;;4954968;28;20429;-86
2022/04/02 06:27:20;;;;;;;2.05;0.50;;;14.00;99.90;;;;;;4954962;29;20472;-86
2022/04/02 06:29:46;;;;;;;5.00;0.43;;;14.10;99.90;;;;;;4939327;29;20070;-87
2022/04/02 06:32:13;;;;;;;1.23;0.28;;;14.10;99.90;;;;;;4954812;28;20051;-86
2022/04/02 06:34:40;;;;;;;6.90;0.70;;;14.20;99.90;;;;;;4939271;29;20051;-86
2022/04/02 06:37:08;;;;;;;1.77;0.55;;;14.30;99.90;;;;;;4955051;29;20552;-85
2022/04/02 06:39:34;;;;;;;0.25;0.25;;;14.20;99.90;;;;;;4955052;29;20035;-87
2022/04/02 06:42:01;;;;;;;1.13;0.20;;;14.30;99.90;;;;;;4954937;28;20023;-87
2022/04/02 06:44:35;;;;;;;0.98;0.65;;;14.30;99.90;;;;;;4940221;29;20152;-86
2022/04/02 06:47:02;;;;;;;2.67;0.40;;;14.40;99.90;;;;;;4954877;29;20050;-86
2022/04/02 06:49:29;;;;;;;4.05;0.88;;;14.30;99.90;;;;;;4938630;29;20034;-86
2022/04/02 06:51:57;;;;;;;4.53;1.15;;;14.30;99.90;;;;;;4954902;29;20035;-86
2022/04/02 06:54:23;;;;;;;8.50;0.50;;;14.40;99.90;;;;;;4938933;29;20236;-86
2022/04/02 06:56:50;;;;;;;2.60;0.50;;;14.30;99.90;;;;;;4939073;29;20055;-85
2022/04/02 06:59:17;;;;;;;1.48;0.50;;;14.40;99.90;;;;;;4939526;29;20038;-91
2022/04/02 07:01:44;;;;;;;3.97;0.70;;;14.40;99.90;;;;;;4954850;29;20027;-91
2022/04/02 07:04:10;;;;;;;4.32;0.68;;;14.80;99.90;;;;;;4954833;29;20055;-90
2022/04/02 07:06:38;;;;;;;2.33;0.77;;;15.10;99.90;;;;;;4947725;28;20036;-89
2022/04/02 07:09:05;;;;;;;4.32;0.65;;;15.20;99.90;;;;;;4945678;28;20393;-89
2022/04/02 07:11:31;;;;;;;8.25;1.30;;;15.40;99.90;;;;;;4974631;28;20024;-89
2022/04/02 07:13:59;;;;;;;1.63;0.20;;;15.30;99.90;;;;;;4941707;29;20031;-90
2022/04/02 07:16:31;;;;;;;1.65;0.52;;;15.40;99.90;;;;;;4958882;28;20028;-89
2022/04/02 07:19:01;;;;;;;2.72;0.85;;;15.20;99.90;;;;;;4960233;28;20110;-89
2022/04/02 07:21:28;;;;;;;4.10;0.93;;;15.40;99.90;;;;;;4944475;29;20023;-90
2022/04/02 07:23:56;;;;;;;1.02;0.28;;;15.80;99.90;;;;;;4945831;29;20042;-87
2022/04/02 07:26:24;;;;;;;4.63;0.75;;;15.90;99.90;;;;;;4940493;29;20471;-86
2022/04/02 07:28:55;;;;;;;5.72;1.10;;;16.30;99.90;;;;;;4943905;29;20031;-84
2022/04/02 07:31:21;;;;;;;2.55;0.40;;;16.00;99.90;;;;;;4976376;28;20071;-82
2022/04/02 07:33:48;;;;;;;4.70;1.08;;;16.00;99.90;;;;;;4943021;29;20029;-85
2022/04/02 07:36:49;;;;;;;7.07;0.75;;;16.50;99.90;;;;;;4944297;29;20484;-85
2022/04/02 07:39:25;;;;;;;1.50;0.40;;;16.50;99.90;;;;;;4942208;29;20028;-86
2022/04/02 07:42:21;;;;;;;1.45;0.25;;;16.50;99.90;;;;;;4958541;28;20031;-85
2022/04/02 07:45:06;;;;;;;1.80;0.50;;;17.40;99.90;;;;;;4928195;29;20019;-84
2022/04/02 07:47:39;;;;;;;3.25;0.50;;;18.00;99.90;;;;;;4975690;28;20054;-84
2022/04/02 07:50:15;;;;;;;6.22;0.35;;;18.00;99.90;;;;;;4974507;28;20024;-84
2022/04/02 07:52:46;;;;;;;3.20;0.65;;;17.80;99.90;;;;;;4958063;28;20023;-87
2022/04/02 07:55:13;;;;;;;6.38;0.45;;;17.80;99.90;;;;;;4959032;28;20063;-87
2022/04/02 07:57:44;;;;;;;0.60;0.43;;;17.70;99.90;;;;;;4943848;29;20474;-87
2022/04/02 08:00:13;;;;;;;3.60;0.95;;;17.30;99.90;;;;;;4959191;28;20512;-86
2022/04/02 08:02:43;;;;;;;2.08;0.35;;;17.30;99.90;;;;;;4947639;29;20023;-86
2022/04/02 08:05:18;;;;;;;;;;;17.00;99.90;;;;;;4950851;29;20103;-84
2022/04/02 08:07:50;;;;;;;0.82;0.50;;;16.60;99.90;;;;;;4930413;29;20018;-86
2022/04/02 08:10:19;;;;;;;2.55;0.73;;;16.40;99.90;;;;;;4945281;29;20034;-85
2022/04/02 08:12:49;;;;;;;4.38;0.90;;;16.60;99.90;;;;;;4962905;28;20023;-85
2022/04/02 08:15:21;;;;;;;6.03;0.77;;;16.70;99.90;;;;;;4947493;29;20047;-87
2022/04/02 08:17:54;;;;;;;9.40;0.73;;;16.30;99.90;;;;;;4947422;29;20059;-85
2022/04/02 08:20:23;;;;;;;1.17;0.50;;;16.30;99.90;;;;;;4945949;29;20104;-85
2022/04/02 08:22:51;;;;;;;1.75;0.95;;;16.10;99.90;;;;;;4963328;28;20023;-86
2022/04/02 08:25:20;;;;;;;1.58;0.63;;;16.60;99.90;;;;;;4963795;28;20027;-83
2022/04/02 08:28:00;;;;;;;2.50;0.57;;;17.00;99.90;;;;;;4947461;29;20030;-83
2022/04/02 08:30:34;;;;;;;2.08;0.50;;;17.50;99.90;;;;;;4962501;28;20378;-88
2022/04/02 08:33:01;;;;;;;;;;;17.70;99.90;;;;;;4977589;28;20086;-87
2022/04/02 08:35:40;;;;;;;3.90;1.15;;;18.20;99.90;;;;;;4946384;29;19911;-86
2022/04/02 08:38:27;;;;;;;13.90;1.75;;;18.50;99.90;;;;;;4944550;29;20027;-88
2022/04/02 08:41:32;;;;;;;1.98;0.55;;;17.70;99.90;;;;;;4962955;28;20038;-87
2022/04/02 08:44:44;;;;;;;3.22;0.63;;;17.60;99.90;;;;;;4965496;28;20053;-85
2022/04/02 08:47:16;;;;;;;2.65;0.60;;;17.70;99.90;;;;;;4945992;29;20046;-85
2022/04/02 08:50:10;;;;;;;2.17;0.77;;;17.90;99.90;;;;;;4961331;28;20023;-85
2022/04/02 08:53:33;;;;;;;5.47;0.80;;;18.00;99.90;;;;;;4933762;29;20420;-86
2022/04/02 08:56:06;;;;;;;2.47;0.47;;;18.70;99.90;;;;;;4905171;29;20386;-86
2022/04/02 08:58:35;;;;;;;3.58;0.88;;;18.20;99.90;;;;;;4889807;29;20232;-86
2022/04/02 09:01:08;;;;;;;2.20;0.88;;;18.10;99.90;;;;;;4925942;29;20058;-86
2022/04/02 09:04:01;;;;;;;1.42;1.08;;;18.00;99.90;;;;;;4960967;28;20039;-87
2022/04/02 09:06:58;;;;;;;1.65;0.98;;;17.50;99.90;;;;;;4945223;29;20091;-85
2022/04/02 09:09:46;;;;;;;1.63;0.60;;;17.30;99.90;;;;;;4942569;29;20070;-86
2022/04/02 09:12:28;;;;;;;0.68;0.50;;;17.10;99.90;;;;;;4928650;29;20039;-86
2022/04/02 09:15:07;;;;;;;4.95;0.75;;;16.80;99.90;;;;;;4962275;28;20035;-86
2022/04/02 09:17:58;;;;;;;2.42;0.63;;;16.70;99.90;;;;;;4946048;29;20035;-86
2022/04/02 09:20:38;;;;;;;5.00;1.13;;;16.50;99.90;;;;;;4947168;29;20036;-87
2022/04/02 09:23:28;;;;;;;1.98;0.70;;;16.50;99.90;;;;;;4944811;29;20470;-88
2022/04/02 09:26:13;;;;;;;8.60;1.08;;;16.50;99.90;;;;;;4978080;28;20033;-86
2022/04/02 09:29:11;;;;;;;1.55;0.68;;;16.70;99.90;;;;;;4961906;28;20110;-85
2022/04/02 09:31:53;;;;;;;4.20;0.88;;;16.70;99.90;;;;;;4930227;29;20136;-85
2022/04/02 09:35:14;;;;;;;3.33;0.73;;;16.30;99.90;;;;;;4959426;28;20039;-83
2022/04/02 09:37:59;;;;;;;4.80;0.80;;;16.00;99.90;;;;;;4920271;29;20118;-83
2022/04/02 09:40:41;;;;;;;2.97;0.38;;;16.00;99.90;;;;;;4944060;29;20028;-84
2022/04/02 09:43:31;;;;;;;2.28;1.05;;;16.00;99.90;;;;;;4944639;29;20027;-84
2022/04/02 09:46:43;;;;;;;4.72;0.63;;;16.10;99.90;;;;;;4977777;28;20094;-84
2022/04/02 09:49:24;;;;;;;2.75;1.15;;;16.00;99.90;;;;;;4873895;29;20057;-84
2022/04/02 09:52:02;;;;;;;1.05;0.45;;;16.20;99.90;;;;;;4874199;29;20076;-84
2022/04/02 09:54:45;;;;;;;3.50;0.85;;;16.40;99.90;;;;;;4894594;29;20085;-84
2022/04/02 09:57:39;;;;;;;1.05;0.75;;;16.50;99.90;;;;;;4895133;29;20032;-84
2022/04/02 10:00:08;;;;;;;1.25;0.90;;;16.50;99.90;;;;;;4892997;29;20495;-83
2022/04/02 10:03:13;;;;;;;1.85;0.63;;;16.50;99.90;;;;;;4863428;29;20072;-83
2022/04/02 10:05:43;;;;;;;1.90;0.77;;;16.60;99.90;;;;;;4877830;29;20037;-83
2022/04/02 10:08:38;;;;;;;4.13;1.27;;;16.70;99.90;;;;;;4872498;29;20037;-83
2022/04/02 10:11:11;;;;;;;4.67;0.80;;;16.70;99.90;;;;;;4892589;29;20025;-84
2022/04/02 10:13:40;;;;;;;6.78;0.60;;;16.50;99.90;;;;;;4885497;29;20041;-84
2022/04/02 10:16:11;;;;;;;1.20;0.52;;;16.50;99.90;;;;;;4880138;29;20368;-83
2022/04/02 10:18:41;;;;;;;4.60;0.55;;;16.50;99.90;;;;;;4880007;29;20041;-83
2022/04/02 10:21:09;;;;;;;4.85;1.02;;;16.60;99.90;;;;;;4894168;29;20125;-83
2022/04/02 10:23:37;;;;;;;2.97;0.85;;;16.70;99.90;;;;;;4894452;29;20115;-84
2022/04/02 17:26:26;;;;;;;3.85;1.15;;;12.50;99.90;;;;;;5367043;23;20115;-94
2022/04/02 18:02:57;;;;;;;2.30;1.30;;;12.10;99.90;;;;;;4919838;23;20051;-94
2022/04/02 18:15:53;;;;;;;9.90;1.63;;;12.20;99.90;;;;;;5802518;23;20086;-95
2022/04/02 19:01:03;;;;;;;7.88;1.75;;;12.30;99.90;;;;;;4895227;29;20045;-93
2022/04/02 19:03:30;;;;;;;9.98;3.42;;;12.40;99.90;;;;;;4881425;29;20031;-92
2022/04/02 19:05:57;;;;;;;10.85;1.92;;;12.30;99.90;;;;;;4884361;29;20127;-92
2022/04/02 19:08:24;;;;;;;3.97;1.75;;;12.30;99.90;;;;;;4880569;29;20065;-92
2022/04/02 19:10:51;;;;;;;6.93;1.40;;;12.30;99.90;;;;;;4879609;29;20033;-93
2022/04/02 19:13:18;;;;;;;4.00;1.73;;;12.20;99.90;;;;;;4878995;29;20033;-93
2022/04/02 19:15:45;;;;;;;10.30;1.73;;;12.20;99.90;;;;;;4896652;23;20055;-91
2022/04/02 19:18:13;;;;;;;2.65;1.15;;;12.20;99.90;;;;;;4901025;29;20044;-92
2022/04/02 19:20:40;;;;;;;1.25;0.80;;;12.20;99.90;;;;;;4901035;29;20035;-92
2022/04/02 19:23:10;;;;;;;1.77;0.80;;;12.20;99.90;;;;;;4902296;29;20035;-93
2022/04/02 19:25:36;;;;;;;3.33;0.95;;;12.20;99.90;;;;;;4888334;29;20028;-92
2022/04/02 19:28:03;;;;;;;5.25;0.80;;;12.20;99.90;;;;;;4902614;29;20031;-92
2022/04/02 19:30:29;;;;;;;5.65;1.10;;;12.30;99.90;;;;;;4900918;29;20028;-92
2022/04/02 19:32:56;;;;;;;7.65;1.17;;;12.20;99.90;;;;;;4901069;29;20059;-94
2022/04/02 19:35:25;;;;;;;5.07;1.00;;;12.30;99.90;;;;;;4901896;29;20087;-93
2022/04/02 19:37:57;;;;;;;6.10;1.17;;;12.30;99.90;;;;;;4903497;29;20465;-94
2022/04/02 19:43:44;;;;;;;5.75;1.08;;;12.30;99.90;;;;;;4936667;23;20052;-93
2022/04/02 19:46:46;;;;;;;3.25;1.35;;;12.30;99.90;;;;;;4849908;29;20037;-93
2022/04/02 19:49:47;;;;;;;5.05;0.50;;;12.30;99.90;;;;;;4870535;29;20101;-93
2022/04/02 19:52:24;;;;;;;2.85;0.43;;;12.20;99.90;;;;;;4878240;24;20051;-78
2022/04/02 19:54:53;;;;;;;0.50;0.45;;;12.10;99.90;;;;;;4914100;29;20036;-80
2022/04/02 19:57:22;;;;;;;3.63;0.50;;;12.10;99.90;;;;;;4884108;29;20037;-80
2022/04/02 19:59:49;;;;;;;1.98;0.50;;;12.00;99.90;;;;;;4884853;29;20479;-80
2022/04/02 20:02:16;;;;;;;4.10;0.60;;;12.00;99.90;;;;;;4884426;29;20039;-80
2022/04/02 20:04:43;;;;;;;1.88;0.88;;;11.90;99.90;;;;;;4884415;29;20080;-79
2022/04/02 20:07:09;;;;;;;5.72;1.02;;;11.80;99.90;;;;;;4884359;29;20037;-80
2022/04/02 20:09:35;;;;;;;7.57;0.82;;;11.80;99.90;;;;;;4901120;29;20025;-80
2022/04/02 20:12:04;;;;;;;2.75;1.08;;;11.80;99.90;;;;;;4884184;29;20055;-79
2022/04/02 20:14:31;;;;;;;5.30;1.20;;;11.70;99.90;;;;;;4884207;29;20024;-80
2022/04/02 20:16:58;;;;;;;3.47;1.15;;;11.80;99.90;;;;;;4884176;29;20160;-79
2022/04/02 20:19:25;;;;;;;2.15;0.82;;;11.70;99.90;;;;;;4901259;29;20439;-80
2022/04/02 20:21:52;;;;;;;2.17;0.50;;;11.70;99.90;;;;;;4883905;29;20032;-80
2022/04/02 20:24:19;;;;;;;5.85;1.63;;;11.60;99.90;;;;;;4884013;29;20029;-79
2022/04/02 20:26:45;;;;;;;6.82;1.92;;;11.60;99.90;;;;;;4883950;29;20043;-79
2022/04/02 20:29:13;;;;;;;3.22;1.20;;;11.60;99.90;;;;;;4883940;29;20099;-79
2022/04/02 20:31:39;;;;;;;4.22;0.63;;;11.60;99.90;;;;;;4883989;29;20028;-79
2022/04/02 20:34:06;;;;;;;2.35;1.00;;;11.60;99.90;;;;;;4883851;29;20025;-79
2022/04/02 20:36:33;;;;;;;3.75;1.02;;;11.60;99.90;;;;;;4900687;29;20040;-79
2022/04/02 20:38:59;;;;;;;8.70;1.10;;;11.50;99.90;;;;;;4900660;29;20032;-79
2022/04/02 20:41:26;;;;;;;0.82;0.57;;;11.60;99.90;;;;;;4883775;29;20413;-81
2022/04/02 20:43:54;;;;;;;1.30;0.65;;;11.60;99.90;;;;;;4883706;29;20119;-79
2022/04/02 20:46:22;;;;;;;6.32;1.58;;;11.60;99.90;;;;;;4883476;29;20041;-80
2022/04/02 20:48:53;;;;;;;2.50;0.75;;;11.60;99.90;;;;;;4883558;29;20036;-79
2022/04/02 20:51:20;;;;;;;5.75;1.02;;;11.60;99.90;;;;;;4900592;29;20040;-79
2022/04/02 20:53:47;;;;;;;4.07;0.90;;;11.70;99.90;;;;;;4864927;29;20048;-79
2022/04/02 20:56:23;;;;;;;3.03;0.50;;;11.60;99.90;;;;;;4881920;29;20029;-78
2022/04/02 20:58:50;;;;;;;1.17;0.68;;;11.60;99.90;;;;;;4881889;29;20029;-78
2022/04/02 21:01:17;;;;;;;2.45;1.08;;;11.60;99.90;;;;;;4864937;29;20029;-78
2022/04/02 21:03:51;;;;;;;3.08;0.80;;;11.60;99.90;;;;;;4881523;29;20120;-78
2022/04/02 21:06:19;;;;;;;1.77;0.75;;;11.50;99.90;;;;;;4864906;29;20494;-78
2022/04/02 21:08:46;;;;;;;0.60;0.30;;;11.50;99.90;;;;;;4864179;29;20036;-78
2022/04/02 21:11:15;;;;;;;1.25;0.40;;;11.50;99.90;;;;;;4881664;29;20029;-79
2022/04/02 21:13:42;;;;;;;4.47;0.65;;;11.50;99.90;;;;;;4881529;29;20084;-78
2022/04/02 21:16:09;;;;;;;6.95;1.70;;;11.50;99.90;;;;;;4881201;29;20033;-79
2022/04/02 21:18:36;;;;;;;2.05;0.50;;;11.40;99.90;;;;;;4864458;29;20063;-79
2022/04/02 21:21:05;;;;;;;6.88;0.57;;;11.40;99.90;;;;;;4864338;29;20029;-80
2022/04/02 21:23:32;;;;;;;3.17;0.60;;;11.40;99.90;;;;;;4864451;29;20029;-79
2022/04/02 21:25:59;;;;;;;3.60;0.70;;;11.40;99.90;;;;;;4864374;29;20033;-79
2022/04/02 21:28:26;;;;;;;1.98;0.50;;;11.40;99.90;;;;;;4881096;29;20106;-79
2022/04/02 21:30:53;;;;;;;1.95;1.05;;;11.40;99.90;;;;;;4864197;29;20426;-79
2022/04/02 21:33:23;;;;;;;2.53;0.32;;;11.40;99.90;;;;;;4848821;29;20036;-79
2022/04/02 21:35:50;;;;;;;8.27;0.70;;;11.40;99.90;;;;;;4864155;29;20483;-79
2022/04/02 21:38:17;;;;;;;1.83;0.95;;;11.40;99.90;;;;;;4881085;29;20062;-79
2022/04/02 21:40:43;;;;;;;2.63;0.60;;;11.40;99.90;;;;;;4881111;29;20033;-79
2022/04/02 21:43:10;;;;;;;2.15;0.95;;;11.40;99.90;;;;;;4863930;29;20502;-80